createdAt,value
2022-08-02T00:00:40.364Z,8.20
2022-08-02T00:03:08.300Z,8.20
2022-08-02T00:05:35.743Z,8.20
2022-08-02T00:08:03.385Z,8.30
2022-08-02T00:10:30.851Z,8.20
2022-08-02T00:12:58.594Z,8.20
2022-08-02T00:15:26.507Z,8.20
2022-08-02T00:17:53.921Z,8.20
2022-08-02T00:20:21.635Z,8.20
2022-08-02T00:22:49.042Z,8.30
2022-08-02T00:25:16.689Z,8.40
2022-08-02T00:27:44.038Z,8.30
2022-08-02T00:30:11.895Z,8.30
2022-08-02T00:32:39.248Z,8.50
2022-08-02T00:35:07.295Z,8.50
2022-08-02T00:37:39.069Z,8.50
2022-08-02T00:40:08.560Z,8.50
2022-08-02T00:42:36.354Z,8.50
2022-08-02T00:45:04.349Z,8.50
2022-08-02T00:47:32.116Z,8.50
2022-08-02T00:49:59.502Z,8.40
2022-08-02T00:52:26.966Z,8.40
2022-08-02T00:54:54.424Z,8.30
2022-08-02T00:57:22.153Z,8.40
2022-08-02T00:59:49.873Z,8.30
2022-08-02T01:02:17.717Z,8.20
2022-08-02T01:04:45.894Z,8.10
2022-08-02T01:07:14.434Z,8.10
2022-08-02T01:09:44.017Z,8.10
2022-08-02T01:12:12.109Z,8.20
2022-08-02T01:14:46.013Z,8.30
2022-08-02T01:17:34.425Z,8.30
2022-08-02T01:20:13.964Z,8.40
2022-08-02T01:23:03.057Z,8.40
2022-08-02T01:25:58.704Z,8.40
2022-08-02T01:28:50.636Z,8.40
2022-08-02T01:31:37.322Z,8.40
2022-08-02T01:34:13.113Z,8.40
2022-08-02T01:36:54.009Z,8.20
2022-08-02T01:39:31.778Z,8.30
2022-08-02T01:42:02.539Z,8.20
2022-08-02T01:44:34.398Z,8.10
2022-08-02T01:47:06.662Z,8.10
2022-08-02T01:49:35.748Z,8.10
2022-08-02T01:52:23.060Z,8.10
2022-08-02T01:55:01.915Z,8.10
2022-08-02T01:57:41.860Z,8.00
2022-08-02T02:00:11.523Z,8.00
2022-08-02T02:02:45.645Z,7.90
2022-08-02T02:05:19.249Z,7.90
2022-08-02T02:07:51.108Z,7.90
2022-08-02T02:10:24.750Z,7.80
2022-08-02T02:12:55.013Z,7.80
2022-08-02T02:15:23.741Z,7.70
2022-08-02T02:18:12.547Z,7.70
2022-08-02T02:20:43.240Z,7.80
2022-08-02T02:23:13.405Z,7.70
2022-08-02T02:25:46.761Z,7.70
2022-08-02T02:28:24.877Z,7.70
2022-08-02T02:30:55.502Z,7.60
2022-08-02T02:33:27.661Z,7.60
2022-08-02T02:35:59.311Z,7.50
2022-08-02T02:38:32.894Z,7.50
2022-08-02T02:41:06.729Z,7.40
2022-08-02T02:43:37.974Z,7.40
2022-08-02T02:46:07.522Z,7.50
2022-08-02T02:48:36.638Z,7.40
2022-08-02T02:51:05.690Z,7.40
2022-08-02T02:54:32.678Z,7.50
2022-08-02T02:56:24.315Z,7.60
2022-08-02T02:58:54.558Z,7.60
2022-08-02T03:01:56.192Z,7.50
2022-08-02T03:04:16.859Z,7.40
2022-08-02T03:06:44.345Z,7.50
2022-08-02T03:09:12.074Z,7.50
2022-08-02T03:11:40.788Z,7.50
2022-08-02T03:14:12.564Z,7.60
2022-08-02T03:16:48.087Z,7.60
2022-08-02T03:19:16.632Z,7.70
2022-08-02T03:21:45.121Z,7.80
2022-08-02T03:24:13.787Z,7.80
2022-08-02T03:26:41.808Z,7.90
2022-08-02T03:29:11.105Z,8.00
2022-08-02T03:31:41.701Z,8.00
2022-08-02T03:34:10.542Z,8.10
2022-08-02T03:36:38.998Z,8.10
2022-08-02T03:39:07.486Z,8.10
2022-08-02T03:41:37.634Z,8.10
2022-08-02T03:44:07.432Z,8.10
2022-08-02T03:46:39.448Z,8.10
2022-08-02T03:49:11.055Z,8.20
2022-08-02T03:51:40.048Z,8.20
2022-08-02T03:54:07.808Z,8.20
2022-08-02T03:56:35.703Z,8.20
2022-08-02T03:59:10.999Z,8.20
2022-08-02T04:01:38.919Z,8.10
2022-08-02T04:04:07.669Z,8.20
2022-08-02T04:06:35.198Z,8.10
2022-08-02T04:09:07.514Z,8.10
2022-08-02T04:11:35.009Z,8.10
2022-08-02T04:14:06.522Z,8.00
2022-08-02T04:16:40.867Z,7.90
2022-08-02T04:19:15.213Z,8.00
2022-08-02T04:21:51.819Z,8.00
2022-08-02T04:24:27.017Z,7.90
2022-08-02T04:27:06.709Z,7.90
2022-08-02T04:29:47.859Z,8.00
2022-08-02T04:32:21.092Z,7.90
2022-08-02T04:35:18.060Z,7.90
2022-08-02T04:37:38.088Z,7.90
2022-08-02T04:40:25.453Z,8.00
2022-08-02T04:42:52.806Z,8.10
2022-08-02T04:45:21.536Z,8.10
2022-08-02T04:48:02.053Z,8.20
2022-08-02T04:50:31.098Z,8.10
2022-08-02T04:52:59.068Z,8.10
2022-08-02T04:55:28.956Z,8.10
2022-08-02T04:57:58.474Z,8.20
2022-08-02T05:00:27.802Z,8.30
2022-08-02T05:02:59.477Z,8.40
2022-08-02T05:05:27.401Z,8.60
2022-08-02T05:07:55.133Z,8.70
2022-08-02T05:10:23.473Z,8.80
2022-08-02T05:12:50.860Z,8.90
2022-08-02T05:15:18.670Z,9.00
2022-08-02T05:17:48.138Z,9.10
2022-08-02T05:20:18.095Z,9.20
2022-08-02T05:22:45.513Z,9.30
2022-08-02T05:25:13.475Z,9.40
2022-08-02T05:27:41.505Z,9.50
2022-08-02T05:30:10.103Z,9.50
2022-08-02T05:32:49.179Z,9.60
2022-08-02T05:35:22.844Z,9.60
2022-08-02T05:37:51.539Z,9.80
2022-08-02T05:40:25.384Z,9.90
2022-08-02T05:42:54.399Z,10.00
2022-08-02T05:45:22.581Z,10.10
2022-08-02T05:47:50.634Z,10.20
2022-08-02T05:50:18.395Z,10.30
2022-08-02T05:53:05.048Z,10.40
2022-08-02T05:55:47.357Z,10.50
2022-08-02T05:58:20.872Z,10.70
2022-08-02T06:00:50.258Z,10.70
2022-08-02T06:03:25.346Z,10.70
2022-08-02T06:06:14.713Z,10.80
2022-08-02T06:08:48.370Z,10.90
2022-08-02T06:11:19.859Z,11.10
2022-08-02T06:13:48.084Z,11.20
2022-08-02T06:16:16.037Z,11.30
2022-08-02T06:18:46.271Z,11.40
2022-08-02T06:22:34.513Z,11.60
2022-08-02T06:24:03.125Z,11.70
2022-08-02T06:26:30.535Z,11.90
2022-08-02T06:28:58.686Z,12.00
2022-08-02T06:31:26.315Z,12.20
2022-08-02T06:33:53.823Z,12.40
2022-08-02T06:37:22.158Z,12.70
2022-08-02T06:39:51.817Z,13.10
2022-08-02T06:42:27.556Z,13.50
2022-08-02T06:44:58.284Z,13.90
2022-08-02T06:47:26.684Z,14.50
2022-08-02T06:49:57.136Z,15.60
2022-08-02T06:52:28.752Z,16.70
2022-08-02T06:54:58.556Z,17.90
2022-08-02T06:57:26.333Z,18.80
2022-08-02T06:59:54.036Z,19.50
2022-08-02T07:02:21.829Z,20.10
2022-08-02T07:04:49.590Z,20.90
2022-08-02T07:07:17.119Z,21.60
2022-08-02T07:10:00.628Z,22.20
2022-08-02T07:12:32.694Z,22.30
2022-08-02T07:15:02.258Z,22.60
2022-08-02T07:17:30.233Z,23.20
2022-08-02T07:19:58.827Z,23.80
2022-08-02T07:22:28.029Z,24.30
2022-08-02T07:24:56.721Z,24.70
2022-08-02T07:27:25.077Z,25.30
2022-08-02T07:29:52.783Z,25.40
2022-08-02T07:32:24.141Z,25.80
2022-08-02T07:34:54.207Z,25.90
2022-08-02T07:37:52.997Z,26.10
2022-08-02T07:40:20.038Z,26.30
2022-08-02T07:42:59.331Z,26.50
2022-08-02T07:45:32.648Z,26.90
2022-08-02T07:48:00.111Z,27.00
2022-08-02T07:50:28.509Z,27.40
2022-08-02T07:52:57.741Z,28.00
2022-08-02T07:55:37.904Z,28.20
2022-08-02T07:58:13.245Z,28.30
2022-08-02T08:00:44.980Z,28.40
2022-08-02T08:03:13.330Z,28.20
2022-08-02T08:05:40.954Z,28.80
2022-08-02T08:08:11.271Z,28.90
2022-08-02T08:10:43.017Z,29.30
2022-08-02T08:13:10.637Z,30.00
2022-08-02T08:15:37.988Z,30.10
2022-08-02T08:18:06.422Z,29.90
2022-08-02T08:20:33.811Z,30.20
2022-08-02T08:23:01.416Z,30.90
2022-08-02T08:25:29.655Z,31.10
2022-08-02T08:27:57.426Z,31.40
2022-08-02T08:30:24.983Z,30.90
2022-08-02T08:32:52.326Z,30.90
2022-08-02T08:35:19.806Z,31.40
2022-08-02T08:37:47.170Z,31.70
2022-08-02T08:40:19.455Z,32.20
2022-08-02T08:42:47.560Z,32.70
2022-08-02T08:45:15.061Z,33.40
2022-08-02T08:47:44.123Z,33.40
2022-08-02T08:50:24.881Z,33.30
2022-08-02T08:53:07.224Z,33.80
2022-08-02T08:55:36.363Z,34.00
2022-08-02T08:58:05.060Z,34.30
2022-08-02T09:00:35.812Z,34.60
2022-08-02T09:03:05.223Z,35.20
2022-08-02T09:05:35.822Z,35.70
2022-08-02T09:08:03.790Z,35.40
2022-08-02T09:10:42.787Z,34.80
2022-08-02T09:13:38.980Z,34.40
2022-08-02T09:16:14.152Z,35.30
2022-08-02T09:18:46.419Z,35.90
2022-08-02T09:21:16.730Z,35.50
2022-08-02T09:23:49.342Z,35.10
2022-08-02T09:26:22.053Z,35.40
2022-08-02T09:28:59.775Z,36.20
2022-08-02T09:31:27.731Z,36.80
2022-08-02T09:34:00.537Z,37.60
2022-08-02T09:36:44.173Z,38.10
2022-08-02T09:39:14.273Z,37.80
2022-08-02T09:41:43.785Z,36.80
2022-08-02T09:44:16.038Z,36.70
2022-08-02T09:46:45.923Z,36.50
2022-08-02T09:49:16.519Z,37.10
2022-08-02T09:51:47.418Z,38.40
2022-08-02T09:54:25.342Z,38.80
2022-08-02T09:56:55.365Z,38.80
2022-08-02T09:59:25.217Z,39.10
2022-08-02T10:01:58.826Z,40.00
2022-08-02T10:04:33.827Z,40.10
2022-08-02T10:07:05.913Z,40.70
2022-08-02T10:09:34.371Z,40.80
2022-08-02T10:12:03.537Z,40.50
2022-08-02T10:14:34.914Z,39.70
2022-08-02T10:17:04.957Z,39.80
2022-08-02T10:20:02.037Z,40.40
2022-08-02T10:22:22.733Z,40.70
2022-08-02T10:24:51.666Z,40.70
2022-08-02T10:27:21.228Z,41.10
2022-08-02T10:29:55.263Z,42.20
2022-08-02T10:32:32.957Z,42.90
2022-08-02T10:35:18.411Z,43.20
2022-08-02T10:37:51.339Z,42.20
2022-08-02T10:40:29.038Z,41.70
2022-08-02T10:43:01.187Z,41.80
2022-08-02T10:45:29.488Z,42.10
2022-08-02T10:48:04.478Z,42.90
2022-08-02T10:51:03.210Z,43.60
2022-08-02T10:53:33.213Z,43.30
2022-08-02T10:56:02.812Z,43.40
2022-08-02T10:58:32.470Z,43.60
2022-08-02T11:01:38.648Z,44.20
2022-08-02T11:04:10.454Z,43.30
2022-08-02T11:07:07.785Z,43.80
2022-08-02T11:09:35.557Z,43.70
2022-08-02T11:12:07.061Z,43.30
2022-08-02T11:14:37.444Z,42.20
2022-08-02T11:17:05.896Z,43.00
2022-08-02T11:19:34.970Z,42.90
2022-08-02T11:22:09.996Z,41.60
2022-08-02T11:24:39.560Z,42.10
2022-08-02T11:27:18.478Z,42.80
2022-08-02T11:29:49.829Z,43.30
2022-08-02T11:32:22.388Z,43.70
2022-08-02T11:35:00.386Z,43.10
2022-08-02T11:37:42.203Z,42.60
2022-08-02T11:40:19.166Z,41.80
2022-08-02T11:42:51.317Z,42.40
2022-08-02T11:45:29.297Z,43.30
2022-08-02T11:47:57.448Z,42.50
2022-08-02T11:50:30.302Z,43.00
2022-08-02T11:52:58.028Z,43.80
2022-08-02T11:55:30.411Z,44.10
2022-08-02T11:58:05.623Z,43.80
2022-08-02T12:00:33.689Z,43.00
2022-08-02T12:03:01.603Z,42.10
2022-08-02T12:06:03.034Z,43.30
2022-08-02T12:08:21.980Z,42.40
2022-08-02T12:10:50.996Z,43.00
2022-08-02T12:13:19.381Z,42.50
2022-08-02T12:15:47.403Z,43.10
2022-08-02T12:18:39.272Z,43.40
2022-08-02T12:21:25.117Z,43.50
2022-08-02T12:23:59.310Z,41.90
2022-08-02T12:26:30.099Z,41.60
2022-08-02T12:28:58.767Z,42.90
2022-08-02T12:31:56.960Z,44.10
2022-08-02T12:34:32.034Z,44.60
2022-08-02T12:37:10.471Z,43.50
2022-08-02T12:39:45.777Z,43.10
2022-08-02T12:42:15.859Z,43.20
2022-08-02T12:44:55.140Z,43.60
2022-08-02T12:47:22.569Z,42.90
2022-08-02T12:50:11.959Z,42.50
2022-08-02T12:52:39.453Z,43.30
2022-08-02T12:55:19.379Z,43.60
2022-08-02T12:58:00.260Z,43.60
2022-08-02T13:00:36.959Z,43.40
2022-08-02T13:03:11.541Z,43.50
2022-08-02T13:05:57.075Z,42.70
2022-08-02T13:08:26.687Z,41.10
2022-08-02T13:10:54.111Z,39.90
2022-08-02T13:13:21.483Z,38.60
2022-08-02T13:15:51.281Z,38.30
2022-08-02T13:18:18.967Z,39.00
2022-08-02T13:20:47.003Z,39.30
2022-08-02T13:23:21.722Z,39.50
2022-08-02T13:25:52.694Z,40.10
2022-08-02T13:28:21.082Z,40.60
2022-08-02T13:30:49.723Z,41.20
2022-08-02T13:33:17.567Z,41.40
2022-08-02T13:35:51.581Z,41.30
2022-08-02T13:38:24.538Z,41.40
2022-08-02T13:41:11.119Z,40.40
2022-08-02T13:43:53.300Z,41.10
2022-08-02T13:46:28.630Z,41.90
2022-08-02T13:48:56.726Z,41.70
2022-08-02T13:51:24.134Z,40.20
2022-08-02T13:53:51.485Z,38.90
2022-08-02T13:56:18.869Z,37.90
2022-08-02T13:58:46.207Z,36.90
2022-08-02T14:01:13.598Z,36.00
2022-08-02T14:04:07.820Z,35.40
2022-08-02T14:06:29.016Z,35.40
2022-08-02T14:09:00.791Z,35.20
2022-08-02T14:11:28.135Z,35.20
2022-08-02T14:13:55.907Z,36.00
2022-08-02T14:16:23.303Z,36.50
2022-08-02T14:19:00.496Z,36.40
2022-08-02T14:21:27.813Z,35.20
2022-08-02T14:23:55.159Z,35.20
2022-08-02T14:26:27.039Z,35.20
2022-08-02T14:28:55.927Z,35.20
2022-08-02T14:31:23.345Z,35.10
2022-08-02T14:33:50.695Z,34.80
2022-08-02T14:36:27.479Z,34.90
2022-08-02T14:38:56.563Z,34.50
2022-08-02T14:41:24.350Z,33.60
2022-08-02T14:44:03.885Z,33.40
2022-08-02T14:46:32.761Z,34.10
2022-08-02T14:49:04.113Z,34.50
2022-08-02T14:51:32.507Z,35.00
2022-08-02T14:54:02.338Z,35.40
2022-08-02T14:56:31.089Z,35.20
2022-08-02T14:58:58.615Z,34.60
2022-08-02T15:01:26.484Z,33.70
2022-08-02T15:03:54.033Z,33.00
2022-08-02T15:06:21.386Z,32.80
2022-08-02T15:08:48.839Z,32.60
2022-08-02T15:11:16.651Z,33.00
2022-08-02T15:13:44.441Z,33.70
2022-08-02T15:16:11.989Z,33.80
2022-08-02T15:18:39.371Z,33.70
2022-08-02T15:21:08.036Z,33.40
2022-08-02T15:23:54.300Z,32.80
2022-08-02T15:26:21.746Z,32.50
2022-08-02T15:28:55.609Z,31.70
2022-08-02T15:31:32.894Z,31.10
2022-08-02T15:34:02.496Z,30.90
2022-08-02T15:36:29.987Z,30.60
2022-08-02T15:38:58.183Z,30.60
2022-08-02T15:41:25.686Z,30.30
2022-08-02T15:44:01.045Z,30.40
2022-08-02T15:46:32.144Z,30.30
2022-08-02T15:49:00.117Z,30.00
2022-08-02T15:51:27.618Z,29.90
2022-08-02T15:53:54.911Z,29.90
2022-08-02T15:56:24.428Z,29.60
2022-08-02T15:58:57.050Z,29.60
2022-08-02T16:01:32.104Z,29.70
2022-08-02T16:04:05.766Z,30.10
2022-08-02T16:06:34.138Z,30.50
2022-08-02T16:09:01.793Z,30.10
2022-08-02T16:11:29.880Z,29.50
2022-08-02T16:13:59.032Z,29.60
2022-08-02T16:16:31.850Z,29.10
2022-08-02T16:19:47.041Z,29.10
2022-08-02T16:21:48.666Z,29.00
2022-08-02T16:24:16.443Z,29.10
2022-08-02T16:26:43.868Z,29.10
2022-08-02T16:29:11.620Z,29.00
2022-08-02T16:31:42.559Z,28.90
2022-08-02T16:34:10.404Z,28.80
2022-08-02T16:36:38.252Z,28.80
2022-08-02T16:39:05.974Z,28.90
2022-08-02T16:41:45.548Z,28.60
2022-08-02T16:44:27.089Z,28.30
2022-08-02T16:47:01.008Z,28.30
2022-08-02T16:50:05.767Z,28.50
2022-08-02T16:52:19.947Z,28.40
2022-08-02T16:54:49.721Z,28.40
2022-08-02T16:57:20.477Z,28.20
2022-08-02T16:59:57.381Z,28.10
2022-08-02T17:02:26.654Z,28.00
2022-08-02T17:04:56.737Z,28.00
2022-08-02T17:08:06.263Z,28.00
2022-08-02T17:10:12.274Z,28.00
2022-08-02T17:12:39.987Z,28.10
2022-08-02T17:16:01.219Z,28.20
2022-08-02T17:17:56.739Z,28.30
2022-08-02T17:20:24.711Z,28.20
2022-08-02T17:22:52.806Z,28.10
2022-08-02T17:25:22.277Z,28.10
2022-08-02T17:27:55.438Z,28.00
2022-08-02T17:30:26.807Z,27.90
2022-08-02T17:32:55.872Z,28.00
2022-08-02T17:35:43.875Z,27.90
2022-08-02T17:38:26.230Z,27.70
2022-08-02T17:40:55.666Z,27.50
2022-08-02T17:43:29.127Z,27.40
2022-08-02T17:46:01.087Z,27.50
2022-08-02T17:48:49.211Z,27.40
2022-08-02T17:52:15.534Z,27.30
2022-08-02T17:54:04.275Z,27.40
2022-08-02T17:56:31.778Z,27.40
2022-08-02T17:59:20.348Z,27.50
2022-08-02T18:01:54.377Z,27.50
2022-08-02T18:04:27.678Z,27.20
2022-08-02T18:06:58.995Z,27.00
2022-08-02T18:09:31.949Z,26.90
2022-08-02T18:11:59.376Z,26.80
2022-08-02T18:14:26.838Z,26.60
2022-08-02T18:16:55.775Z,26.50
2022-08-02T18:19:23.139Z,26.40
2022-08-02T18:22:02.912Z,26.30
2022-08-02T18:24:31.095Z,26.30
2022-08-02T18:26:58.982Z,26.30
2022-08-02T18:29:30.063Z,26.30
2022-08-02T18:32:11.896Z,26.20
2022-08-02T18:34:40.109Z,26.30
2022-08-02T18:37:08.394Z,26.20
2022-08-02T18:39:38.503Z,26.10
2022-08-02T18:42:06.089Z,25.90
2022-08-02T18:44:33.674Z,25.80
2022-08-02T18:47:01.012Z,25.70
2022-08-02T18:49:42.930Z,25.60
2022-08-02T18:52:15.803Z,25.40
2022-08-02T18:54:58.675Z,25.40
2022-08-02T18:57:59.837Z,25.30
2022-08-02T19:00:14.758Z,25.20
2022-08-02T19:02:48.491Z,25.20
2022-08-02T19:05:16.219Z,25.10
2022-08-02T19:07:50.911Z,25.00
2022-08-02T19:10:20.750Z,25.00
2022-08-02T19:12:51.595Z,24.80
2022-08-02T19:15:19.905Z,24.80
2022-08-02T19:17:54.914Z,24.70
2022-08-02T19:20:24.024Z,24.60
2022-08-02T19:22:53.594Z,24.60
2022-08-02T19:25:27.979Z,24.60
2022-08-02T19:27:56.614Z,24.60
2022-08-02T19:30:25.828Z,24.50
2022-08-02T19:32:59.597Z,24.40
2022-08-02T19:36:02.060Z,24.40
2022-08-02T19:38:29.476Z,24.30
2022-08-02T19:40:57.305Z,24.40
2022-08-02T19:44:23.730Z,24.30
2022-08-02T19:46:16.000Z,24.20
2022-08-02T19:48:44.145Z,24.20
2022-08-02T19:51:13.580Z,24.10
2022-08-02T19:53:47.316Z,24.00
2022-08-02T19:56:25.249Z,24.00
2022-08-02T19:58:54.901Z,24.00
2022-08-02T20:01:37.231Z,23.90
2022-08-02T20:04:13.090Z,23.90
2022-08-02T20:06:45.183Z,23.80
2022-08-02T20:09:22.816Z,23.70
2022-08-02T20:11:54.101Z,23.70
2022-08-02T20:14:26.793Z,23.60
2022-08-02T20:16:57.524Z,23.60
2022-08-02T20:22:13.988Z,23.50
2022-08-02T20:24:42.449Z,23.40
2022-08-02T20:27:14.885Z,23.40
2022-08-02T20:29:48.516Z,23.30
2022-08-02T20:32:26.167Z,23.20
2022-08-02T20:34:53.555Z,23.10
2022-08-02T20:37:59.688Z,23.00
2022-08-02T20:40:09.382Z,23.00
2022-08-02T20:42:36.786Z,23.00
2022-08-02T20:45:07.472Z,22.80
2022-08-02T20:47:40.058Z,22.80
2022-08-02T20:50:31.561Z,22.70
2022-08-02T20:53:00.732Z,22.50
2022-08-02T20:55:31.218Z,22.40
2022-08-02T20:58:02.844Z,22.30
2022-08-02T21:00:31.694Z,22.20
2022-08-02T21:03:00.559Z,22.20
2022-08-02T21:05:55.272Z,22.20
2022-08-02T21:08:16.151Z,22.20
2022-08-02T21:10:52.156Z,22.20
2022-08-02T21:13:22.848Z,22.20
2022-08-02T21:15:52.119Z,22.20
2022-08-02T21:18:23.021Z,22.10
2022-08-02T21:21:05.725Z,22.10
2022-08-02T21:23:36.892Z,22.00
2022-08-02T21:26:06.658Z,22.00
2022-08-02T21:28:44.204Z,21.90
2022-08-02T21:31:15.296Z,21.90
2022-08-02T21:33:47.160Z,21.80
2022-08-02T21:36:32.228Z,21.80
2022-08-02T21:39:17.725Z,21.70
2022-08-02T21:44:32.723Z,21.70
2022-08-02T21:47:00.078Z,21.70
2022-08-02T21:50:08.569Z,21.70
2022-08-02T21:52:15.499Z,21.70
2022-08-02T21:54:45.513Z,21.70
2022-08-02T21:57:15.668Z,21.60
2022-08-02T21:59:46.363Z,21.60
2022-08-02T22:02:15.714Z,21.60
2022-08-02T22:04:47.680Z,21.60
2022-08-02T22:07:17.635Z,21.60
2022-08-02T22:09:52.621Z,21.60
2022-08-02T22:12:21.955Z,21.60
2022-08-02T22:14:56.395Z,21.60
2022-08-02T22:17:51.160Z,21.50
2022-08-02T22:20:19.747Z,21.50
2022-08-02T22:25:38.985Z,21.30
2022-08-02T22:28:38.021Z,21.30
2022-08-02T22:30:56.862Z,21.30
2022-08-02T22:33:47.114Z,21.30
2022-08-02T22:36:35.219Z,21.30
2022-08-02T22:39:19.317Z,21.30
2022-08-02T22:42:05.813Z,21.30
2022-08-02T22:44:35.547Z,21.30
2022-08-02T22:47:07.203Z,21.30
2022-08-02T22:49:51.545Z,21.30
2022-08-02T22:52:22.213Z,21.20
2022-08-02T22:54:50.962Z,21.20
2022-08-02T22:57:30.778Z,21.10
2022-08-02T22:58:55.200Z,23.50
2022-08-02T22:59:04.748Z,21.40
2022-08-02T22:59:12.093Z,21.70
2022-08-02T23:00:09.380Z,21.10
2022-08-02T23:02:37.625Z,21.10
2022-08-02T23:05:06.346Z,21.00
2022-08-02T23:07:38.550Z,20.80
2022-08-02T23:10:07.900Z,20.70
2022-08-02T23:12:35.255Z,20.50
2022-08-02T23:15:02.769Z,20.30
2022-08-02T23:17:48.969Z,20.20
2022-08-02T23:20:20.915Z,20.10
2022-08-02T23:22:48.274Z,20.00
2022-08-02T23:25:16.534Z,19.90
2022-08-02T23:27:50.777Z,19.80
2022-08-02T23:30:19.519Z,19.80
2022-08-02T23:32:47.580Z,19.70
2022-08-02T23:35:16.692Z,19.60
2022-08-02T23:38:00.326Z,19.50
2022-08-02T23:40:39.588Z,19.40
2022-08-02T23:43:14.071Z,19.30
2022-08-02T23:45:44.993Z,19.30
2022-08-02T23:48:12.404Z,19.30
2022-08-02T23:50:39.834Z,19.20
2022-08-02T23:53:07.218Z,19.10
2022-08-02T23:55:34.551Z,19.10
2022-08-02T23:58:01.874Z,19.00
